sensor_id;sensor_type;location;lat;lon;timestamp;P1;durP1;ratioP1;P2;durP2;ratioP2
75935;SDS011;64614;32.062;34.834;2023-01-30T00:00:57;16.30;;;6.38;;
75935;SDS011;64614;32.062;34.834;2023-01-30T00:06:06;13.00;;;5.97;;
75935;SDS011;64614;32.062;34.834;2023-01-30T00:08:35;14.00;;;6.55;;
75935;SDS011;64614;32.062;34.834;2023-01-30T00:11:04;13.52;;;5.75;;
75935;SDS011;64614;32.062;34.834;2023-01-30T00:13:32;14.27;;;6.55;;
75935;SDS011;64614;32.062;34.834;2023-01-30T00:15:58;15.80;;;6.13;;
75935;SDS011;64614;32.062;34.834;2023-01-30T00:18:24;14.10;;;6.25;;
75935;SDS011;64614;32.062;34.834;2023-01-30T00:21:00;13.35;;;6.40;;
75935;SDS011;64614;32.062;34.834;2023-01-30T00:23:28;14.90;;;6.40;;
75935;SDS011;64614;32.062;34.834;2023-01-30T00:25:54;12.65;;;6.28;;
75935;SDS011;64614;32.062;34.834;2023-01-30T00:28:20;12.90;;;6.28;;
75935;SDS011;64614;32.062;34.834;2023-01-30T00:30:47;14.18;;;5.72;;
75935;SDS011;64614;32.062;34.834;2023-01-30T00:33:17;12.13;;;6.05;;
75935;SDS011;64614;32.062;34.834;2023-01-30T00:35:47;11.70;;;5.97;;
75935;SDS011;64614;32.062;34.834;2023-01-30T00:38:15;14.82;;;6.38;;
75935;SDS011;64614;32.062;34.834;2023-01-30T00:40:42;13.10;;;6.50;;
75935;SDS011;64614;32.062;34.834;2023-01-30T00:43:10;14.30;;;6.03;;
75935;SDS011;64614;32.062;34.834;2023-01-30T00:45:56;13.40;;;6.15;;
75935;SDS011;64614;32.062;34.834;2023-01-30T00:48:41;11.70;;;5.93;;
75935;SDS011;64614;32.062;34.834;2023-01-30T00:51:07;11.82;;;6.28;;
75935;SDS011;64614;32.062;34.834;2023-01-30T00:53:33;12.77;;;5.60;;
75935;SDS011;64614;32.062;34.834;2023-01-30T00:55:59;13.20;;;6.15;;
75935;SDS011;64614;32.062;34.834;2023-01-30T00:58:24;10.98;;;5.78;;
75935;SDS011;64614;32.062;34.834;2023-01-30T01:00:50;12.52;;;5.80;;
75935;SDS011;64614;32.062;34.834;2023-01-30T01:03:17;14.07;;;6.03;;
75935;SDS011;64614;32.062;34.834;2023-01-30T01:05:43;13.18;;;5.93;;
75935;SDS011;64614;32.062;34.834;2023-01-30T01:08:09;14.05;;;6.45;;
75935;SDS011;64614;32.062;34.834;2023-01-30T01:10:34;15.63;;;6.82;;
75935;SDS011;64614;32.062;34.834;2023-01-30T01:13:00;14.02;;;6.90;;
75935;SDS011;64614;32.062;34.834;2023-01-30T01:15:26;11.77;;;5.68;;
75935;SDS011;64614;32.062;34.834;2023-01-30T01:17:52;12.30;;;6.15;;
75935;SDS011;64614;32.062;34.834;2023-01-30T01:20:19;11.55;;;6.25;;
75935;SDS011;64614;32.062;34.834;2023-01-30T01:22:47;16.08;;;6.18;;
75935;SDS011;64614;32.062;34.834;2023-01-30T01:25:18;15.40;;;6.30;;
75935;SDS011;64614;32.062;34.834;2023-01-30T01:27:44;10.43;;;5.88;;
75935;SDS011;64614;32.062;34.834;2023-01-30T01:30:11;13.93;;;5.95;;
75935;SDS011;64614;32.062;34.834;2023-01-30T01:32:37;13.88;;;6.45;;
75935;SDS011;64614;32.062;34.834;2023-01-30T01:35:03;14.75;;;6.15;;
75935;SDS011;64614;32.062;34.834;2023-01-30T01:37:30;13.68;;;5.90;;
75935;SDS011;64614;32.062;34.834;2023-01-30T01:39:55;14.38;;;6.60;;
75935;SDS011;64614;32.062;34.834;2023-01-30T01:42:40;14.68;;;6.75;;
75935;SDS011;64614;32.062;34.834;2023-01-30T01:47:41;14.07;;;6.25;;
75935;SDS011;64614;32.062;34.834;2023-01-30T01:50:14;12.93;;;5.55;;
75935;SDS011;64614;32.062;34.834;2023-01-30T01:52:43;15.20;;;6.53;;
75935;SDS011;64614;32.062;34.834;2023-01-30T01:55:10;13.63;;;5.88;;
75935;SDS011;64614;32.062;34.834;2023-01-30T01:57:46;12.25;;;5.68;;
75935;SDS011;64614;32.062;34.834;2023-01-30T02:00:19;14.68;;;6.18;;
75935;SDS011;64614;32.062;34.834;2023-01-30T02:02:50;17.85;;;5.95;;
75935;SDS011;64614;32.062;34.834;2023-01-30T02:05:22;14.55;;;5.75;;
75935;SDS011;64614;32.062;34.834;2023-01-30T02:07:59;12.73;;;5.43;;
75935;SDS011;64614;32.062;34.834;2023-01-30T02:10:36;10.90;;;5.63;;
75935;SDS011;64614;32.062;34.834;2023-01-30T02:13:11;14.80;;;5.78;;
75935;SDS011;64614;32.062;34.834;2023-01-30T02:15:36;14.85;;;6.05;;
75935;SDS011;64614;32.062;34.834;2023-01-30T02:18:02;13.82;;;5.80;;
75935;SDS011;64614;32.062;34.834;2023-01-30T02:23:38;16.27;;;6.07;;
75935;SDS011;64614;32.062;34.834;2023-01-30T02:35:30;14.30;;;5.80;;
75935;SDS011;64614;32.062;34.834;2023-01-30T02:46:12;15.20;;;5.75;;
75935;SDS011;64614;32.062;34.834;2023-01-30T02:48:45;11.23;;;5.47;;
75935;SDS011;64614;32.062;34.834;2023-01-30T02:51:25;13.02;;;5.65;;
75935;SDS011;64614;32.062;34.834;2023-01-30T02:53:57;12.23;;;5.10;;
75935;SDS011;64614;32.062;34.834;2023-01-30T02:56:23;13.52;;;5.40;;
75935;SDS011;64614;32.062;34.834;2023-01-30T02:58:53;12.70;;;5.80;;
75935;SDS011;64614;32.062;34.834;2023-01-30T03:04:20;13.02;;;5.13;;
75935;SDS011;64614;32.062;34.834;2023-01-30T03:09:48;12.57;;;5.20;;
75935;SDS011;64614;32.062;34.834;2023-01-30T03:12:48;14.98;;;4.88;;
75935;SDS011;64614;32.062;34.834;2023-01-30T03:17:59;12.70;;;5.15;;
75935;SDS011;64614;32.062;34.834;2023-01-30T03:20:26;12.00;;;5.43;;
75935;SDS011;64614;32.062;34.834;2023-01-30T03:22:52;12.15;;;4.75;;
75935;SDS011;64614;32.062;34.834;2023-01-30T03:25:20;19.38;;;5.35;;
75935;SDS011;64614;32.062;34.834;2023-01-30T03:27:49;11.95;;;5.22;;
75935;SDS011;64614;32.062;34.834;2023-01-30T03:32:42;13.10;;;6.63;;
75935;SDS011;64614;32.062;34.834;2023-01-30T03:35:07;12.80;;;7.47;;
75935;SDS011;64614;32.062;34.834;2023-01-30T03:37:33;16.98;;;8.10;;
75935;SDS011;64614;32.062;34.834;2023-01-30T03:40:00;12.77;;;7.07;;
75935;SDS011;64614;32.062;34.834;2023-01-30T03:42:26;13.32;;;6.43;;
75935;SDS011;64614;32.062;34.834;2023-01-30T03:44:53;12.70;;;6.72;;
75935;SDS011;64614;32.062;34.834;2023-01-30T03:47:18;13.00;;;6.55;;
75935;SDS011;64614;32.062;34.834;2023-01-30T03:49:44;14.50;;;6.50;;
75935;SDS011;64614;32.062;34.834;2023-01-30T03:52:10;12.82;;;6.60;;
75935;SDS011;64614;32.062;34.834;2023-01-30T03:54:35;10.45;;;6.13;;
75935;SDS011;64614;32.062;34.834;2023-01-30T03:57:01;13.77;;;7.00;;
75935;SDS011;64614;32.062;34.834;2023-01-30T03:59:27;15.50;;;6.72;;
75935;SDS011;64614;32.062;34.834;2023-01-30T04:01:52;16.77;;;7.43;;
75935;SDS011;64614;32.062;34.834;2023-01-30T04:04:18;13.95;;;7.05;;
75935;SDS011;64614;32.062;34.834;2023-01-30T04:06:44;17.25;;;7.97;;
75935;SDS011;64614;32.062;34.834;2023-01-30T04:09:09;16.30;;;7.03;;
75935;SDS011;64614;32.062;34.834;2023-01-30T04:11:35;17.08;;;7.53;;
75935;SDS011;64614;32.062;34.834;2023-01-30T04:14:01;16.27;;;7.05;;
75935;SDS011;64614;32.062;34.834;2023-01-30T04:16:26;16.77;;;7.10;;
75935;SDS011;64614;32.062;34.834;2023-01-30T04:18:52;17.08;;;6.95;;
75935;SDS011;64614;32.062;34.834;2023-01-30T04:21:18;18.30;;;6.70;;
75935;SDS011;64614;32.062;34.834;2023-01-30T04:23:44;14.45;;;6.10;;
75935;SDS011;64614;32.062;34.834;2023-01-30T04:26:11;15.20;;;6.78;;
75935;SDS011;64614;32.062;34.834;2023-01-30T04:28:46;15.30;;;6.20;;
75935;SDS011;64614;32.062;34.834;2023-01-30T04:31:12;20.35;;;6.30;;
75935;SDS011;64614;32.062;34.834;2023-01-30T04:33:37;15.95;;;6.05;;
75935;SDS011;64614;32.062;34.834;2023-01-30T04:36:04;15.23;;;6.07;;
75935;SDS011;64614;32.062;34.834;2023-01-30T04:38:31;13.38;;;5.50;;
75935;SDS011;64614;32.062;34.834;2023-01-30T04:40:58;12.00;;;5.72;;
75935;SDS011;64614;32.062;34.834;2023-01-30T04:43:25;13.98;;;5.65;;
75935;SDS011;64614;32.062;34.834;2023-01-30T04:45:51;15.40;;;5.50;;
75935;SDS011;64614;32.062;34.834;2023-01-30T04:48:18;13.85;;;5.72;;
75935;SDS011;64614;32.062;34.834;2023-01-30T04:50:46;13.40;;;5.70;;
75935;SDS011;64614;32.062;34.834;2023-01-30T04:53:13;16.00;;;5.88;;
75935;SDS011;64614;32.062;34.834;2023-01-30T04:55:39;19.33;;;5.55;;
75935;SDS011;64614;32.062;34.834;2023-01-30T04:58:05;12.43;;;5.75;;
75935;SDS011;64614;32.062;34.834;2023-01-30T05:00:31;13.18;;;5.13;;
75935;SDS011;64614;32.062;34.834;2023-01-30T05:02:57;12.43;;;5.50;;
75935;SDS011;64614;32.062;34.834;2023-01-30T05:05:23;12.90;;;4.88;;
75935;SDS011;64614;32.062;34.834;2023-01-30T05:07:50;14.23;;;5.55;;
75935;SDS011;64614;32.062;34.834;2023-01-30T05:10:16;14.60;;;5.32;;
75935;SDS011;64614;32.062;34.834;2023-01-30T05:12:42;13.10;;;5.45;;
75935;SDS011;64614;32.062;34.834;2023-01-30T05:15:08;12.77;;;5.45;;
75935;SDS011;64614;32.062;34.834;2023-01-30T05:17:34;12.93;;;4.72;;
75935;SDS011;64614;32.062;34.834;2023-01-30T05:20:00;13.85;;;4.90;;
75935;SDS011;64614;32.062;34.834;2023-01-30T05:22:26;13.77;;;4.63;;
75935;SDS011;64614;32.062;34.834;2023-01-30T05:24:52;12.15;;;4.18;;
75935;SDS011;64614;32.062;34.834;2023-01-30T05:27:17;13.95;;;4.57;;
75935;SDS011;64614;32.062;34.834;2023-01-30T05:29:43;15.10;;;5.13;;
75935;SDS011;64614;32.062;34.834;2023-01-30T05:32:15;12.10;;;4.55;;
75935;SDS011;64614;32.062;34.834;2023-01-30T05:34:42;13.20;;;4.70;;
75935;SDS011;64614;32.062;34.834;2023-01-30T05:37:08;12.02;;;4.45;;
75935;SDS011;64614;32.062;34.834;2023-01-30T05:39:33;14.07;;;4.80;;
75935;SDS011;64614;32.062;34.834;2023-01-30T05:41:59;13.27;;;4.60;;
75935;SDS011;64614;32.062;34.834;2023-01-30T05:44:25;16.27;;;4.85;;
75935;SDS011;64614;32.062;34.834;2023-01-30T05:46:52;12.98;;;4.65;;
75935;SDS011;64614;32.062;34.834;2023-01-30T05:49:18;16.85;;;5.10;;
75935;SDS011;64614;32.062;34.834;2023-01-30T05:51:44;13.15;;;4.55;;
75935;SDS011;64614;32.062;34.834;2023-01-30T05:54:09;16.13;;;4.93;;
75935;SDS011;64614;32.062;34.834;2023-01-30T05:56:35;13.88;;;4.80;;
75935;SDS011;64614;32.062;34.834;2023-01-30T05:59:01;19.35;;;5.00;;
75935;SDS011;64614;32.062;34.834;2023-01-30T06:01:27;14.68;;;5.07;;
75935;SDS011;64614;32.062;34.834;2023-01-30T06:03:53;15.65;;;4.88;;
75935;SDS011;64614;32.062;34.834;2023-01-30T06:06:20;19.02;;;5.00;;
75935;SDS011;64614;32.062;34.834;2023-01-30T06:08:46;19.40;;;5.82;;
75935;SDS011;64614;32.062;34.834;2023-01-30T06:11:14;13.52;;;4.82;;
75935;SDS011;64614;32.062;34.834;2023-01-30T06:13:41;14.63;;;4.75;;
75935;SDS011;64614;32.062;34.834;2023-01-30T06:16:08;14.20;;;4.80;;
75935;SDS011;64614;32.062;34.834;2023-01-30T06:18:36;15.57;;;4.95;;
75935;SDS011;64614;32.062;34.834;2023-01-30T06:21:02;16.05;;;5.10;;
75935;SDS011;64614;32.062;34.834;2023-01-30T06:23:28;20.20;;;5.32;;
75935;SDS011;64614;32.062;34.834;2023-01-30T06:25:53;13.55;;;5.22;;
75935;SDS011;64614;32.062;34.834;2023-01-30T06:28:20;16.80;;;6.60;;
75935;SDS011;64614;32.062;34.834;2023-01-30T06:30:46;13.60;;;5.35;;
75935;SDS011;64614;32.062;34.834;2023-01-30T06:33:12;14.57;;;4.97;;
75935;SDS011;64614;32.062;34.834;2023-01-30T06:35:39;21.35;;;5.75;;
75935;SDS011;64614;32.062;34.834;2023-01-30T06:38:06;19.30;;;6.05;;
75935;SDS011;64614;32.062;34.834;2023-01-30T06:40:37;17.10;;;5.53;;
75935;SDS011;64614;32.062;34.834;2023-01-30T06:43:03;19.08;;;5.68;;
75935;SDS011;64614;32.062;34.834;2023-01-30T06:45:29;15.32;;;5.03;;
75935;SDS011;64614;32.062;34.834;2023-01-30T06:47:55;18.42;;;5.13;;
75935;SDS011;64614;32.062;34.834;2023-01-30T06:50:22;16.33;;;4.95;;
75935;SDS011;64614;32.062;34.834;2023-01-30T06:52:49;16.13;;;4.60;;
75935;SDS011;64614;32.062;34.834;2023-01-30T06:55:18;12.15;;;5.25;;
75935;SDS011;64614;32.062;34.834;2023-01-30T06:57:44;18.77;;;5.35;;
75935;SDS011;64614;32.062;34.834;2023-01-30T07:00:12;17.48;;;6.40;;
75935;SDS011;64614;32.062;34.834;2023-01-30T07:02:39;14.07;;;5.20;;
75935;SDS011;64614;32.062;34.834;2023-01-30T07:05:05;18.33;;;5.70;;
75935;SDS011;64614;32.062;34.834;2023-01-30T07:07:32;17.33;;;6.45;;
75935;SDS011;64614;32.062;34.834;2023-01-30T07:09:58;15.25;;;5.65;;
75935;SDS011;64614;32.062;34.834;2023-01-30T07:12:24;14.75;;;5.50;;
75935;SDS011;64614;32.062;34.834;2023-01-30T07:14:51;14.40;;;6.18;;
75935;SDS011;64614;32.062;34.834;2023-01-30T07:17:17;15.77;;;5.03;;
75935;SDS011;64614;32.062;34.834;2023-01-30T07:19:44;14.02;;;5.45;;
75935;SDS011;64614;32.062;34.834;2023-01-30T07:22:10;16.70;;;5.68;;
75935;SDS011;64614;32.062;34.834;2023-01-30T07:24:37;14.13;;;5.50;;
75935;SDS011;64614;32.062;34.834;2023-01-30T07:27:06;14.25;;;5.13;;
75935;SDS011;64614;32.062;34.834;2023-01-30T07:32:01;14.13;;;4.25;;
75935;SDS011;64614;32.062;34.834;2023-01-30T07:34:27;11.45;;;4.10;;
75935;SDS011;64614;32.062;34.834;2023-01-30T07:36:53;14.45;;;4.60;;
75935;SDS011;64614;32.062;34.834;2023-01-30T07:39:19;13.02;;;3.72;;
75935;SDS011;64614;32.062;34.834;2023-01-30T07:41:44;11.13;;;4.22;;
75935;SDS011;64614;32.062;34.834;2023-01-30T07:44:11;12.80;;;3.90;;
75935;SDS011;64614;32.062;34.834;2023-01-30T07:46:37;9.95;;;4.00;;
75935;SDS011;64614;32.062;34.834;2023-01-30T07:49:04;10.90;;;4.00;;
75935;SDS011;64614;32.062;34.834;2023-01-30T07:51:30;11.23;;;3.75;;
75935;SDS011;64614;32.062;34.834;2023-01-30T07:53:56;10.27;;;3.63;;
75935;SDS011;64614;32.062;34.834;2023-01-30T07:56:22;11.13;;;3.40;;
75935;SDS011;64614;32.062;34.834;2023-01-30T07:58:48;11.85;;;3.47;;
75935;SDS011;64614;32.062;34.834;2023-01-30T08:01:15;15.50;;;3.80;;
75935;SDS011;64614;32.062;34.834;2023-01-30T08:03:42;9.18;;;3.95;;
75935;SDS011;64614;32.062;34.834;2023-01-30T08:06:10;11.35;;;3.60;;
75935;SDS011;64614;32.062;34.834;2023-01-30T08:08:36;7.95;;;3.53;;
75935;SDS011;64614;32.062;34.834;2023-01-30T08:11:03;8.75;;;3.28;;
75935;SDS011;64614;32.062;34.834;2023-01-30T08:13:29;8.85;;;3.08;;
75935;SDS011;64614;32.062;34.834;2023-01-30T08:15:58;11.07;;;3.05;;
75935;SDS011;64614;32.062;34.834;2023-01-30T08:18:28;11.13;;;2.95;;
75935;SDS011;64614;32.062;34.834;2023-01-30T08:20:57;8.45;;;2.90;;
75935;SDS011;64614;32.062;34.834;2023-01-30T08:23:28;10.40;;;3.47;;
75935;SDS011;64614;32.062;34.834;2023-01-30T08:25:55;7.30;;;3.10;;
75935;SDS011;64614;32.062;34.834;2023-01-30T08:28:21;9.23;;;3.05;;
75935;SDS011;64614;32.062;34.834;2023-01-30T08:30:47;9.43;;;2.83;;
75935;SDS011;64614;32.062;34.834;2023-01-30T08:33:17;7.43;;;2.80;;
75935;SDS011;64614;32.062;34.834;2023-01-30T08:35:43;8.50;;;2.80;;
75935;SDS011;64614;32.062;34.834;2023-01-30T08:38:09;11.40;;;3.58;;
75935;SDS011;64614;32.062;34.834;2023-01-30T08:40:35;14.07;;;3.17;;
75935;SDS011;64614;32.062;34.834;2023-01-30T08:43:01;9.73;;;3.00;;
75935;SDS011;64614;32.062;34.834;2023-01-30T08:45:27;11.05;;;3.17;;
75935;SDS011;64614;32.062;34.834;2023-01-30T08:47:56;13.27;;;3.25;;
75935;SDS011;64614;32.062;34.834;2023-01-30T08:50:23;41.95;;;4.57;;
75935;SDS011;64614;32.062;34.834;2023-01-30T08:52:49;25.52;;;3.63;;
75935;SDS011;64614;32.062;34.834;2023-01-30T08:55:14;14.93;;;2.75;;
75935;SDS011;64614;32.062;34.834;2023-01-30T08:57:40;18.75;;;2.90;;
75935;SDS011;64614;32.062;34.834;2023-01-30T09:00:07;13.30;;;2.47;;
75935;SDS011;64614;32.062;34.834;2023-01-30T09:02:33;9.25;;;2.47;;
75935;SDS011;64614;32.062;34.834;2023-01-30T09:04:59;7.28;;;2.10;;
75935;SDS011;64614;32.062;34.834;2023-01-30T09:07:25;6.90;;;1.90;;
75935;SDS011;64614;32.062;34.834;2023-01-30T09:09:52;6.35;;;1.98;;
75935;SDS011;64614;32.062;34.834;2023-01-30T09:12:18;4.65;;;1.70;;
75935;SDS011;64614;32.062;34.834;2023-01-30T09:14:44;4.32;;;1.77;;
75935;SDS011;64614;32.062;34.834;2023-01-30T09:17:10;6.72;;;1.80;;
75935;SDS011;64614;32.062;34.834;2023-01-30T09:19:35;6.78;;;1.70;;
75935;SDS011;64614;32.062;34.834;2023-01-30T09:22:01;5.22;;;1.55;;
75935;SDS011;64614;32.062;34.834;2023-01-30T09:24:27;5.47;;;1.48;;
75935;SDS011;64614;32.062;34.834;2023-01-30T09:26:53;6.63;;;1.90;;
75935;SDS011;64614;32.062;34.834;2023-01-30T09:29:22;6.43;;;1.90;;
75935;SDS011;64614;32.062;34.834;2023-01-30T09:31:48;6.85;;;2.20;;
75935;SDS011;64614;32.062;34.834;2023-01-30T09:34:14;5.70;;;1.90;;
75935;SDS011;64614;32.062;34.834;2023-01-30T09:36:39;12.45;;;1.80;;
75935;SDS011;64614;32.062;34.834;2023-01-30T09:39:05;4.72;;;1.83;;
75935;SDS011;64614;32.062;34.834;2023-01-30T09:52:29;5.07;;;1.58;;
75935;SDS011;64614;32.062;34.834;2023-01-30T09:58:03;6.95;;;1.50;;
75935;SDS011;64614;32.062;34.834;2023-01-30T10:03:05;2.55;;;1.13;;
75935;SDS011;64614;32.062;34.834;2023-01-30T10:05:42;2.75;;;1.30;;
75935;SDS011;64614;32.062;34.834;2023-01-30T10:11:00;6.38;;;1.60;;
75935;SDS011;64614;32.062;34.834;2023-01-30T10:16:24;3.40;;;1.40;;
75935;SDS011;64614;32.062;34.834;2023-01-30T10:19:17;4.75;;;1.20;;
75935;SDS011;64614;32.062;34.834;2023-01-30T10:24:18;3.03;;;1.10;;
75935;SDS011;64614;32.062;34.834;2023-01-30T10:27:00;4.10;;;1.10;;
75935;SDS011;64614;32.062;34.834;2023-01-30T10:29:30;3.60;;;1.20;;
75935;SDS011;64614;32.062;34.834;2023-01-30T10:32:03;4.55;;;1.20;;
75935;SDS011;64614;32.062;34.834;2023-01-30T10:34:39;3.63;;;1.27;;
75935;SDS011;64614;32.062;34.834;2023-01-30T10:37:28;3.70;;;1.40;;
75935;SDS011;64614;32.062;34.834;2023-01-30T10:42:43;2.97;;;1.20;;
75935;SDS011;64614;32.062;34.834;2023-01-30T10:45:18;4.38;;;1.30;;
75935;SDS011;64614;32.062;34.834;2023-01-30T10:50:44;4.07;;;1.80;;
75935;SDS011;64614;32.062;34.834;2023-01-30T10:53:31;3.40;;;1.20;;
75935;SDS011;64614;32.062;34.834;2023-01-30T10:56:14;4.03;;;1.40;;
75935;SDS011;64614;32.062;34.834;2023-01-30T11:01:24;4.63;;;1.20;;
75935;SDS011;64614;32.062;34.834;2023-01-30T11:04:03;4.07;;;1.10;;
75935;SDS011;64614;32.062;34.834;2023-01-30T11:06:38;5.32;;;1.13;;
75935;SDS011;64614;32.062;34.834;2023-01-30T11:11:52;4.63;;;1.02;;
75935;SDS011;64614;32.062;34.834;2023-01-30T11:14:19;6.60;;;1.10;;
75935;SDS011;64614;32.062;34.834;2023-01-30T11:17:07;10.15;;;1.63;;
75935;SDS011;64614;32.062;34.834;2023-01-30T11:19:41;8.63;;;1.33;;
75935;SDS011;64614;32.062;34.834;2023-01-30T11:22:09;3.63;;;1.10;;
75935;SDS011;64614;32.062;34.834;2023-01-30T11:24:43;8.80;;;1.52;;
75935;SDS011;64614;32.062;34.834;2023-01-30T11:29:39;6.30;;;1.30;;
75935;SDS011;64614;32.062;34.834;2023-01-30T11:32:09;6.65;;;1.40;;
75935;SDS011;64614;32.062;34.834;2023-01-30T11:34:40;18.92;;;2.38;;
75935;SDS011;64614;32.062;34.834;2023-01-30T11:37:12;8.93;;;1.73;;
75935;SDS011;64614;32.062;34.834;2023-01-30T11:39:51;8.40;;;1.75;;
75935;SDS011;64614;32.062;34.834;2023-01-30T11:42:18;7.68;;;1.50;;
75935;SDS011;64614;32.062;34.834;2023-01-30T11:45:02;5.97;;;1.75;;
75935;SDS011;64614;32.062;34.834;2023-01-30T11:47:38;7.85;;;1.30;;
75935;SDS011;64614;32.062;34.834;2023-01-30T11:50:16;3.03;;;1.23;;
75935;SDS011;64614;32.062;34.834;2023-01-30T11:52:43;7.25;;;1.75;;
75935;SDS011;64614;32.062;34.834;2023-01-30T11:55:12;6.95;;;1.48;;
75935;SDS011;64614;32.062;34.834;2023-01-30T12:00:21;2.30;;;0.90;;
75935;SDS011;64614;32.062;34.834;2023-01-30T12:02:49;3.28;;;1.00;;
75935;SDS011;64614;32.062;34.834;2023-01-30T12:05:22;6.78;;;1.35;;
75935;SDS011;64614;32.062;34.834;2023-01-30T12:07:50;2.10;;;0.85;;
75935;SDS011;64614;32.062;34.834;2023-01-30T12:12:50;4.85;;;1.00;;
75935;SDS011;64614;32.062;34.834;2023-01-30T12:18:15;7.03;;;1.20;;
75935;SDS011;64614;32.062;34.834;2023-01-30T12:20:59;5.93;;;1.52;;
75935;SDS011;64614;32.062;34.834;2023-01-30T12:26:13;6.47;;;1.50;;
75935;SDS011;64614;32.062;34.834;2023-01-30T12:33:55;4.60;;;1.25;;
75935;SDS011;64614;32.062;34.834;2023-01-30T12:58:18;4.97;;;1.17;;
75935;SDS011;64614;32.062;34.834;2023-01-30T13:09:06;5.45;;;1.30;;
75935;SDS011;64614;32.062;34.834;2023-01-30T13:15:02;6.10;;;1.85;;
75935;SDS011;64614;32.062;34.834;2023-01-30T13:20:44;5.35;;;1.00;;
75935;SDS011;64614;32.062;34.834;2023-01-30T13:26:21;4.15;;;1.33;;
75935;SDS011;64614;32.062;34.834;2023-01-30T13:28:56;3.70;;;1.10;;
75935;SDS011;64614;32.062;34.834;2023-01-30T13:31:28;4.85;;;0.98;;
75935;SDS011;64614;32.062;34.834;2023-01-30T13:34:04;1.80;;;0.93;;
75935;SDS011;64614;32.062;34.834;2023-01-30T13:36:46;1.48;;;1.00;;
75935;SDS011;64614;32.062;34.834;2023-01-30T13:39:22;4.32;;;0.90;;
75935;SDS011;64614;32.062;34.834;2023-01-30T13:41:56;5.00;;;1.23;;
75935;SDS011;64614;32.062;34.834;2023-01-30T13:44:28;3.67;;;1.17;;
75935;SDS011;64614;32.062;34.834;2023-01-30T13:46:56;3.67;;;1.10;;
75935;SDS011;64614;32.062;34.834;2023-01-30T13:53:09;3.85;;;0.90;;
75935;SDS011;64614;32.062;34.834;2023-01-30T13:55:29;2.05;;;0.98;;
75935;SDS011;64614;32.062;34.834;2023-01-30T14:00:39;9.15;;;1.40;;
75935;SDS011;64614;32.062;34.834;2023-01-30T14:09:15;5.82;;;1.02;;
75935;SDS011;64614;32.062;34.834;2023-01-30T14:13:59;4.57;;;0.95;;
75935;SDS011;64614;32.062;34.834;2023-01-30T14:16:38;4.30;;;0.88;;
75935;SDS011;64614;32.062;34.834;2023-01-30T14:24:42;6.80;;;0.80;;
75935;SDS011;64614;32.062;34.834;2023-01-30T14:27:26;2.78;;;1.00;;
75935;SDS011;64614;32.062;34.834;2023-01-30T14:29:56;3.90;;;0.88;;
75935;SDS011;64614;32.062;34.834;2023-01-30T14:37:29;6.70;;;1.20;;
75935;SDS011;64614;32.062;34.834;2023-01-30T14:51:20;4.05;;;0.88;;
75935;SDS011;64614;32.062;34.834;2023-01-30T14:59:35;4.80;;;0.90;;
75935;SDS011;64614;32.062;34.834;2023-01-30T15:07:15;2.58;;;0.90;;
75935;SDS011;64614;32.062;34.834;2023-01-30T15:09:51;1.70;;;0.70;;
75935;SDS011;64614;32.062;34.834;2023-01-30T15:24:05;3.50;;;0.77;;
75935;SDS011;64614;32.062;34.834;2023-01-30T15:27:06;3.42;;;0.90;;
75935;SDS011;64614;32.062;34.834;2023-01-30T15:29:54;4.07;;;1.02;;
75935;SDS011;64614;32.062;34.834;2023-01-30T15:32:41;6.72;;;1.45;;
75935;SDS011;64614;32.062;34.834;2023-01-30T15:37:50;7.47;;;1.10;;
75935;SDS011;64614;32.062;34.834;2023-01-30T15:43:33;19.15;;;1.88;;
75935;SDS011;64614;32.062;34.834;2023-01-30T15:51:15;27.85;;;3.50;;
75935;SDS011;64614;32.062;34.834;2023-01-30T15:53:46;26.02;;;3.03;;
75935;SDS011;64614;32.062;34.834;2023-01-30T15:56:16;28.65;;;2.80;;
75935;SDS011;64614;32.062;34.834;2023-01-30T15:58:44;22.20;;;2.78;;
75935;SDS011;64614;32.062;34.834;2023-01-30T16:03:45;33.22;;;3.65;;
75935;SDS011;64614;32.062;34.834;2023-01-30T16:06:27;24.00;;;2.10;;
75935;SDS011;64614;32.062;34.834;2023-01-30T16:11:36;15.48;;;2.20;;
75935;SDS011;64614;32.062;34.834;2023-01-30T16:14:04;16.88;;;3.38;;
75935;SDS011;64614;32.062;34.834;2023-01-30T16:27:00;15.23;;;2.45;;
75935;SDS011;64614;32.062;34.834;2023-01-30T16:29:45;16.42;;;2.20;;
75935;SDS011;64614;32.062;34.834;2023-01-30T16:55:37;10.05;;;2.15;;
75935;SDS011;64614;32.062;34.834;2023-01-30T16:58:03;9.80;;;1.55;;
75935;SDS011;64614;32.062;34.834;2023-01-30T17:00:34;7.22;;;1.30;;
75935;SDS011;64614;32.062;34.834;2023-01-30T17:03:21;10.23;;;1.73;;
75935;SDS011;64614;32.062;34.834;2023-01-30T17:18:26;8.75;;;1.60;;
75935;SDS011;64614;32.062;34.834;2023-01-30T17:20:52;7.88;;;1.30;;
75935;SDS011;64614;32.062;34.834;2023-01-30T17:23:18;7.93;;;1.48;;
75935;SDS011;64614;32.062;34.834;2023-01-30T17:25:46;9.70;;;1.40;;
75935;SDS011;64614;32.062;34.834;2023-01-30T17:28:18;9.02;;;1.48;;
75935;SDS011;64614;32.062;34.834;2023-01-30T17:30:46;7.85;;;1.35;;
75935;SDS011;64614;32.062;34.834;2023-01-30T17:33:12;7.03;;;1.10;;
75935;SDS011;64614;32.062;34.834;2023-01-30T17:35:38;6.30;;;1.20;;
75935;SDS011;64614;32.062;34.834;2023-01-30T17:38:04;7.65;;;1.33;;
75935;SDS011;64614;32.062;34.834;2023-01-30T17:40:31;6.40;;;2.10;;
75935;SDS011;64614;32.062;34.834;2023-01-30T17:43:00;5.55;;;1.38;;
75935;SDS011;64614;32.062;34.834;2023-01-30T17:45:26;4.95;;;1.33;;
75935;SDS011;64614;32.062;34.834;2023-01-30T17:47:52;5.47;;;1.30;;
75935;SDS011;64614;32.062;34.834;2023-01-30T17:52:53;6.40;;;1.35;;
75935;SDS011;64614;32.062;34.834;2023-01-30T17:55:19;5.68;;;1.25;;
75935;SDS011;64614;32.062;34.834;2023-01-30T17:57:46;5.40;;;1.17;;
75935;SDS011;64614;32.062;34.834;2023-01-30T18:00:17;3.05;;;0.95;;
75935;SDS011;64614;32.062;34.834;2023-01-30T18:02:44;6.55;;;1.20;;
75935;SDS011;64614;32.062;34.834;2023-01-30T18:10:21;4.60;;;1.15;;
75935;SDS011;64614;32.062;34.834;2023-01-30T18:12:47;5.53;;;1.30;;
75935;SDS011;64614;32.062;34.834;2023-01-30T18:15:13;6.05;;;1.30;;
75935;SDS011;64614;32.062;34.834;2023-01-30T18:17:46;5.97;;;1.40;;
75935;SDS011;64614;32.062;34.834;2023-01-30T18:20:15;4.57;;;1.30;;
75935;SDS011;64614;32.062;34.834;2023-01-30T18:22:43;4.95;;;1.30;;
75935;SDS011;64614;32.062;34.834;2023-01-30T18:25:10;4.88;;;1.20;;
75935;SDS011;64614;32.062;34.834;2023-01-30T18:27:39;3.90;;;1.02;;
75935;SDS011;64614;32.062;34.834;2023-01-30T18:30:08;2.72;;;1.20;;
75935;SDS011;64614;32.062;34.834;2023-01-30T18:32:35;5.53;;;1.50;;
75935;SDS011;64614;32.062;34.834;2023-01-30T18:35:02;4.93;;;1.23;;
75935;SDS011;64614;32.062;34.834;2023-01-30T18:37:28;3.35;;;1.20;;
75935;SDS011;64614;32.062;34.834;2023-01-30T18:39:54;3.80;;;1.27;;
75935;SDS011;64614;32.062;34.834;2023-01-30T18:42:20;3.78;;;1.20;;
75935;SDS011;64614;32.062;34.834;2023-01-30T18:44:46;4.93;;;1.10;;
75935;SDS011;64614;32.062;34.834;2023-01-30T18:47:12;4.65;;;1.23;;
75935;SDS011;64614;32.062;34.834;2023-01-30T18:49:37;3.90;;;1.20;;
75935;SDS011;64614;32.062;34.834;2023-01-30T18:52:03;3.88;;;1.00;;
75935;SDS011;64614;32.062;34.834;2023-01-30T18:54:29;3.80;;;1.30;;
75935;SDS011;64614;32.062;34.834;2023-01-30T18:56:55;3.33;;;1.27;;
75935;SDS011;64614;32.062;34.834;2023-01-30T18:59:21;2.60;;;1.10;;